createdAt,value
2022-08-17T00:01:38.489Z,13.77
2022-08-17T00:04:20.164Z,14.00
2022-08-17T00:06:49.177Z,13.82
2022-08-17T00:09:18.895Z,14.00
2022-08-17T00:12:40.386Z,13.70
2022-08-17T00:14:36.173Z,13.82
2022-08-17T00:17:04.498Z,14.13
2022-08-17T00:19:32.817Z,13.20
2022-08-17T00:22:35.027Z,13.57
2022-08-17T00:24:50.526Z,13.45
2022-08-17T00:27:18.385Z,13.63
2022-08-17T00:29:45.693Z,12.65
2022-08-17T00:33:14.778Z,12.38
2022-08-17T00:35:08.021Z,12.13
2022-08-17T00:37:35.160Z,11.60
2022-08-17T00:40:02.316Z,11.85
2022-08-17T00:42:31.231Z,10.85
2022-08-17T00:44:58.949Z,11.23
2022-08-17T00:47:26.674Z,12.25
2022-08-17T00:49:53.909Z,12.13
2022-08-17T00:52:27.828Z,11.73
2022-08-17T00:54:55.165Z,13.20
2022-08-17T00:57:30.276Z,11.80
2022-08-17T01:00:04.846Z,13.18
2022-08-17T01:02:43.289Z,12.60
2022-08-17T01:05:18.604Z,13.38
2022-08-17T01:07:48.145Z,13.02
2022-08-17T01:10:59.824Z,12.02
2022-08-17T01:13:04.106Z,13.35
2022-08-17T01:15:37.759Z,13.00
2022-08-17T01:18:08.567Z,12.98
2022-08-17T01:20:57.589Z,12.38
2022-08-17T01:23:27.444Z,13.00
2022-08-17T01:25:59.472Z,12.68
2022-08-17T01:28:33.424Z,12.75
2022-08-17T01:31:18.323Z,13.25
2022-08-17T01:33:45.467Z,13.38
2022-08-17T01:36:12.148Z,12.77
2022-08-17T01:38:40.322Z,13.88
2022-08-17T01:41:12.113Z,13.45
2022-08-17T01:43:50.699Z,13.88
2022-08-17T01:46:22.294Z,14.75
2022-08-17T01:48:51.355Z,14.30
2022-08-17T01:51:18.235Z,15.27
2022-08-17T01:53:49.744Z,14.65
2022-08-17T01:56:21.139Z,15.10
2022-08-17T01:58:48.923Z,14.90
2022-08-17T02:01:19.707Z,15.98
2022-08-17T02:03:59.133Z,15.55
2022-08-17T02:06:31.433Z,15.02
2022-08-17T02:09:16.487Z,13.90
2022-08-17T02:11:44.984Z,14.77
2022-08-17T02:14:13.411Z,14.05
2022-08-17T02:16:41.848Z,15.57
2022-08-17T02:19:12.140Z,15.50
2022-08-17T02:21:40.719Z,15.77
2022-08-17T02:24:11.394Z,15.20
2022-08-17T02:26:38.838Z,15.05
2022-08-17T02:29:05.525Z,15.38
2022-08-17T02:31:32.582Z,14.65
2022-08-17T02:34:03.884Z,14.23
2022-08-17T02:36:34.299Z,15.25
2022-08-17T02:39:06.609Z,14.95
2022-08-17T02:41:34.537Z,15.77
2022-08-17T02:44:01.389Z,16.60
2022-08-17T02:46:30.663Z,16.13
2022-08-17T02:48:57.825Z,15.80
2022-08-17T02:51:27.750Z,16.08
2022-08-17T02:54:40.817Z,15.85
2022-08-17T02:56:42.161Z,17.10
2022-08-17T02:59:08.850Z,15.30
2022-08-17T03:01:35.886Z,15.98
2022-08-17T03:04:02.651Z,16.98
2022-08-17T03:06:30.631Z,15.95
2022-08-17T03:08:57.396Z,14.45
2022-08-17T03:11:24.815Z,15.98
2022-08-17T03:13:51.519Z,15.80
2022-08-17T03:16:18.813Z,15.20
2022-08-17T03:18:45.864Z,14.38
2022-08-17T03:21:13.359Z,13.90
2022-08-17T03:23:42.039Z,14.70
2022-08-17T03:26:12.300Z,13.15
2022-08-17T03:28:42.387Z,14.82
2022-08-17T03:31:09.612Z,12.75
2022-08-17T03:33:36.291Z,13.50
2022-08-17T03:36:03.821Z,12.18
2022-08-17T03:38:39.270Z,11.65
2022-08-17T03:41:07.245Z,12.20
2022-08-17T03:43:34.580Z,11.65
2022-08-17T03:46:27.900Z,10.35
2022-08-17T03:49:18.128Z,11.18
2022-08-17T03:52:03.887Z,9.75
2022-08-17T03:54:49.460Z,10.68
2022-08-17T03:57:16.923Z,9.77
2022-08-17T03:59:45.071Z,9.15
2022-08-17T04:02:23.654Z,9.27
2022-08-17T04:04:51.390Z,9.23
2022-08-17T04:07:26.274Z,9.15
2022-08-17T04:09:53.325Z,8.25
2022-08-17T04:12:23.217Z,8.00
2022-08-17T04:14:52.890Z,8.40
2022-08-17T04:17:24.863Z,7.47
2022-08-17T04:19:51.999Z,7.20
2022-08-17T04:22:30.461Z,8.20
2022-08-17T04:25:09.192Z,7.45
2022-08-17T04:27:36.899Z,7.00
2022-08-17T04:30:07.146Z,7.30
2022-08-17T04:33:04.734Z,7.90
2022-08-17T04:35:49.924Z,7.18
2022-08-17T04:38:20.759Z,7.00
2022-08-17T04:41:06.998Z,7.38
2022-08-17T04:43:36.357Z,6.13
2022-08-17T04:46:06.134Z,6.30
2022-08-17T04:48:39.952Z,6.22
2022-08-17T04:51:10.447Z,6.68
2022-08-17T04:53:40.703Z,6.10
2022-08-17T04:56:07.721Z,6.18
2022-08-17T04:58:39.236Z,6.20
2022-08-17T05:01:06.984Z,5.75
2022-08-17T05:03:35.108Z,6.45
2022-08-17T05:06:01.794Z,6.43
2022-08-17T05:08:29.324Z,6.55
2022-08-17T05:10:56.220Z,6.70
2022-08-17T05:13:26.325Z,6.20
2022-08-17T05:16:00.754Z,6.38
2022-08-17T05:18:29.752Z,6.78
2022-08-17T05:20:56.996Z,6.80
2022-08-17T05:23:26.756Z,6.13
2022-08-17T05:26:02.521Z,6.82
2022-08-17T05:28:30.418Z,7.00
2022-08-17T05:30:59.999Z,7.53
2022-08-17T05:33:31.750Z,6.80
2022-08-17T05:36:00.746Z,6.32
2022-08-17T05:38:29.877Z,6.40
2022-08-17T05:40:57.646Z,6.25
2022-08-17T05:43:27.650Z,6.90
2022-08-17T05:46:35.774Z,6.25
2022-08-17T05:49:08.114Z,7.80
2022-08-17T05:52:03.590Z,7.17
2022-08-17T05:54:33.959Z,6.97
2022-08-17T05:57:27.475Z,7.43
2022-08-17T06:00:07.556Z,7.88
2022-08-17T06:02:58.876Z,7.18
2022-08-17T06:05:31.804Z,8.15
2022-08-17T06:08:30.263Z,8.65
2022-08-17T06:11:21.424Z,8.30
2022-08-17T06:16:28.210Z,8.48
2022-08-17T06:19:13.540Z,8.23
2022-08-17T06:21:44.743Z,8.20
2022-08-17T06:24:37.904Z,8.65
2022-08-17T06:27:43.717Z,8.40
2022-08-17T06:30:15.869Z,8.98
2022-08-17T06:32:45.691Z,9.70
2022-08-17T06:35:36.854Z,10.20
2022-08-17T06:38:04.170Z,10.23
2022-08-17T06:40:59.630Z,9.80
2022-08-17T06:43:40.101Z,11.07
2022-08-17T06:46:13.214Z,11.68
2022-08-17T06:48:52.189Z,11.70
2022-08-17T06:51:39.593Z,11.95
2022-08-17T06:54:06.370Z,13.45
2022-08-17T06:56:52.970Z,13.32
2022-08-17T06:59:55.903Z,12.65
2022-08-17T07:02:52.768Z,12.95
2022-08-17T07:05:25.715Z,13.18
2022-08-17T07:08:04.751Z,13.52
2022-08-17T07:10:41.168Z,14.57
2022-08-17T07:13:30.855Z,13.18
2022-08-17T07:16:20.733Z,14.75
2022-08-17T07:18:50.700Z,15.00
2022-08-17T07:21:27.897Z,16.90
2022-08-17T07:24:29.365Z,14.88
2022-08-17T07:27:08.594Z,16.13
2022-08-17T07:30:02.990Z,16.33
2022-08-17T07:32:58.008Z,16.15
2022-08-17T07:35:41.251Z,17.95
2022-08-17T07:38:25.972Z,18.98
2022-08-17T07:41:03.209Z,19.67
2022-08-17T07:43:38.994Z,21.98
2022-08-17T07:46:36.929Z,23.95
2022-08-17T07:49:03.531Z,21.63
2022-08-17T07:51:39.979Z,24.00
2022-08-17T07:54:15.531Z,25.13
2022-08-17T07:56:52.651Z,26.33
2022-08-17T07:59:23.049Z,26.70
2022-08-17T08:02:05.412Z,26.67
2022-08-17T08:05:01.311Z,25.33
2022-08-17T08:08:05.852Z,26.92
2022-08-17T08:10:42.725Z,28.55
2022-08-17T08:13:24.259Z,28.75
2022-08-17T08:16:11.353Z,29.80
2022-08-17T08:18:56.038Z,29.55
2022-08-17T08:21:54.714Z,29.42
2022-08-17T08:24:31.204Z,29.55
2022-08-17T08:27:14.010Z,29.45
2022-08-17T08:30:04.888Z,28.35
2022-08-17T08:32:54.066Z,29.80
2022-08-17T08:35:48.644Z,29.70
2022-08-17T08:38:36.620Z,29.83
2022-08-17T08:41:29.718Z,30.90
2022-08-17T08:50:08.313Z,27.77
2022-08-17T08:53:14.473Z,29.65
2022-08-17T08:55:53.507Z,29.45
2022-08-17T08:58:43.756Z,29.08
2022-08-17T09:01:23.773Z,28.80
2022-08-17T09:04:17.866Z,28.35
2022-08-17T09:07:10.778Z,29.73
2022-08-17T09:09:59.889Z,29.65
2022-08-17T09:12:41.533Z,29.90
2022-08-17T09:15:18.109Z,31.20
2022-08-17T09:19:02.676Z,29.25
2022-08-17T09:20:57.873Z,29.55
2022-08-17T09:23:33.416Z,31.25
2022-08-17T09:26:09.649Z,29.73
2022-08-17T09:28:42.809Z,28.52
2022-08-17T09:31:14.017Z,28.85
2022-08-17T09:33:45.705Z,29.90
2022-08-17T09:37:08.244Z,30.17
2022-08-17T09:39:43.591Z,30.08
2022-08-17T09:42:55.434Z,30.00
2022-08-17T09:45:49.326Z,29.85
2022-08-17T09:48:23.428Z,26.10
2022-08-17T09:51:04.749Z,25.73
2022-08-17T09:53:35.658Z,26.23
2022-08-17T09:56:26.338Z,26.45
2022-08-17T09:59:05.471Z,25.17
2022-08-17T10:01:47.398Z,26.92
2022-08-17T10:04:40.350Z,29.80
2022-08-17T10:07:18.751Z,27.25
2022-08-17T10:09:55.636Z,28.63
2022-08-17T10:12:39.367Z,27.92
2022-08-17T10:15:36.557Z,28.08
2022-08-17T10:18:08.396Z,28.10
2022-08-17T10:21:19.571Z,27.07
2022-08-17T10:24:21.447Z,28.33
2022-08-17T10:26:56.557Z,27.80
2022-08-17T10:29:49.850Z,26.10
2022-08-17T10:32:33.883Z,27.90
2022-08-17T10:35:19.839Z,28.75
2022-08-17T10:38:17.323Z,29.63
2022-08-17T10:41:00.952Z,28.48
2022-08-17T10:43:37.139Z,31.88
2022-08-17T10:46:46.453Z,31.95
2022-08-17T10:49:20.960Z,35.03
2022-08-17T10:52:00.355Z,34.70
2022-08-17T10:54:58.783Z,35.90
2022-08-17T10:57:47.134Z,35.55
2022-08-17T11:00:25.545Z,34.25
2022-08-17T11:02:55.664Z,34.35
2022-08-17T11:05:50.296Z,35.10
2022-08-17T11:08:42.277Z,34.78
2022-08-17T11:14:23.784Z,34.65
2022-08-17T11:17:14.426Z,35.25
2022-08-17T11:19:53.093Z,34.97
2022-08-17T11:22:39.458Z,39.20
2022-08-17T11:25:14.656Z,39.25
2022-08-17T11:27:42.844Z,43.70
2022-08-17T11:30:35.794Z,39.53
2022-08-17T11:33:29.780Z,40.35
2022-08-17T11:36:22.221Z,40.33
2022-08-17T11:38:57.905Z,39.95
2022-08-17T11:42:00.686Z,42.60
2022-08-17T11:45:04.255Z,41.85
2022-08-17T11:48:23.888Z,44.80
2022-08-17T11:51:05.463Z,46.05
2022-08-17T11:53:38.723Z,47.05
2022-08-17T11:56:28.878Z,49.05
2022-08-17T11:58:55.972Z,50.78
2022-08-17T12:01:22.616Z,54.53
2022-08-17T12:03:58.798Z,52.08
2022-08-17T12:06:44.658Z,52.35
2022-08-17T12:09:40.415Z,52.58
2022-08-17T12:12:19.919Z,50.90
2022-08-17T12:15:09.662Z,52.35
2022-08-17T12:17:50.639Z,52.63
2022-08-17T12:20:28.229Z,51.10
2022-08-17T12:23:04.080Z,52.22
2022-08-17T12:25:42.825Z,52.38
2022-08-17T12:28:31.281Z,53.05
2022-08-17T12:31:22.940Z,54.55
2022-08-17T12:33:51.708Z,55.20
2022-08-17T12:36:28.265Z,55.65
2022-08-17T12:39:14.182Z,56.28
2022-08-17T12:41:50.421Z,59.33
2022-08-17T12:44:21.413Z,59.13
2022-08-17T12:46:56.205Z,62.22
2022-08-17T12:49:31.182Z,63.53
2022-08-17T12:52:26.907Z,66.75
2022-08-17T12:55:12.637Z,67.05
2022-08-17T12:57:43.435Z,71.05
2022-08-17T13:00:15.634Z,71.35
2022-08-17T13:02:49.445Z,72.63
2022-08-17T13:05:22.638Z,72.50
2022-08-17T13:07:51.156Z,71.47
2022-08-17T13:10:22.933Z,66.90
2022-08-17T13:12:51.246Z,66.13
2022-08-17T13:15:27.443Z,65.05
2022-08-17T13:18:04.648Z,60.97
2022-08-17T13:20:31.863Z,59.92
2022-08-17T13:23:01.733Z,58.05
2022-08-17T13:25:29.756Z,58.28
2022-08-17T13:27:57.506Z,59.28
2022-08-17T13:30:33.055Z,62.00
2022-08-17T13:33:04.137Z,59.72
2022-08-17T13:35:40.927Z,57.17
2022-08-17T13:38:12.854Z,53.33
2022-08-17T13:40:41.500Z,55.67
2022-08-17T13:43:10.871Z,54.67
2022-08-17T13:45:43.344Z,55.33
2022-08-17T13:48:28.075Z,55.47
2022-08-17T13:50:57.708Z,53.97
2022-08-17T13:53:33.138Z,51.13
2022-08-17T13:56:38.183Z,52.60
2022-08-17T13:59:02.937Z,50.50
2022-08-17T14:01:39.350Z,51.05
2022-08-17T14:04:10.244Z,45.85
2022-08-17T14:06:54.381Z,50.50
2022-08-17T14:09:27.078Z,49.55
2022-08-17T14:11:55.345Z,45.47
2022-08-17T14:14:23.075Z,46.92
2022-08-17T14:16:54.493Z,44.25
2022-08-17T14:19:24.493Z,46.58
2022-08-17T14:21:56.308Z,48.15
2022-08-17T14:24:29.654Z,50.00
2022-08-17T14:26:58.043Z,45.40
2022-08-17T14:29:28.138Z,47.15
2022-08-17T14:31:56.591Z,47.00
2022-08-17T14:34:24.879Z,49.85
2022-08-17T14:36:53.094Z,49.15
2022-08-17T14:39:20.575Z,52.17
2022-08-17T14:41:47.710Z,50.72
2022-08-17T14:44:15.204Z,49.25
2022-08-17T14:46:44.975Z,47.08
2022-08-17T14:49:15.468Z,45.47
2022-08-17T14:51:43.694Z,45.88
2022-08-17T14:54:32.912Z,44.45
2022-08-17T14:57:23.150Z,42.83
2022-08-17T14:59:48.854Z,39.50
2022-08-17T15:02:22.193Z,36.17
2022-08-17T15:05:04.773Z,33.47
2022-08-17T15:07:31.848Z,31.90
2022-08-17T15:10:02.144Z,33.50
2022-08-17T15:12:34.584Z,28.33
2022-08-17T15:15:05.183Z,28.98
2022-08-17T15:17:44.298Z,25.60
2022-08-17T15:20:24.939Z,24.75
2022-08-17T15:22:55.449Z,25.00
2022-08-17T15:25:26.005Z,24.10
2022-08-17T15:27:53.966Z,27.45
2022-08-17T15:30:24.493Z,27.15
2022-08-17T15:32:55.225Z,27.55
2022-08-17T15:35:28.052Z,29.10
2022-08-17T15:38:10.573Z,31.77
2022-08-17T15:40:42.708Z,30.73
2022-08-17T15:43:23.455Z,34.72
2022-08-17T15:46:12.064Z,34.47
2022-08-17T15:48:41.633Z,32.75
2022-08-17T15:51:11.395Z,32.47
2022-08-17T15:53:39.475Z,29.27
2022-08-17T15:56:07.212Z,30.00
2022-08-17T15:58:35.476Z,30.48
2022-08-17T16:01:14.889Z,29.88
2022-08-17T16:06:32.615Z,27.17
2022-08-17T16:09:00.280Z,26.15
2022-08-17T16:11:27.294Z,24.02
2022-08-17T16:13:54.776Z,24.38
2022-08-17T16:16:23.886Z,24.00
2022-08-17T16:18:54.552Z,23.90
2022-08-17T16:21:26.026Z,23.88
2022-08-17T16:24:12.679Z,24.35
2022-08-17T16:26:40.575Z,24.15
2022-08-17T16:29:07.528Z,24.75
2022-08-17T16:31:37.420Z,25.50
2022-08-17T16:34:17.457Z,22.45
2022-08-17T16:36:50.548Z,19.77
2022-08-17T16:39:25.368Z,18.42
2022-08-17T16:41:52.441Z,14.85
2022-08-17T16:44:20.772Z,14.00
2022-08-17T16:46:48.821Z,13.48
2022-08-17T16:49:36.375Z,13.23
2022-08-17T16:52:05.917Z,13.00
2022-08-17T16:54:35.013Z,12.95
2022-08-17T16:57:03.885Z,12.70
2022-08-17T16:59:39.617Z,14.68
2022-08-17T17:02:14.519Z,15.98
2022-08-17T17:04:49.341Z,15.35
2022-08-17T17:07:34.149Z,15.50
2022-08-17T17:10:15.193Z,15.68
2022-08-17T17:13:03.095Z,15.30
2022-08-17T17:15:51.594Z,15.20
2022-08-17T17:18:22.990Z,15.05
2022-08-17T17:20:56.568Z,14.85
2022-08-17T17:23:30.067Z,20.98
2022-08-17T17:26:19.926Z,20.75
2022-08-17T17:29:01.342Z,13.38
2022-08-17T17:31:38.003Z,13.32
2022-08-17T17:34:10.232Z,11.52
2022-08-17T17:36:46.259Z,13.07
2022-08-17T17:39:17.749Z,12.50
2022-08-17T17:41:56.347Z,13.27
2022-08-17T17:44:29.787Z,13.10
2022-08-17T17:46:59.676Z,13.95
2022-08-17T17:49:32.855Z,14.43
2022-08-17T17:52:13.119Z,13.75
2022-08-17T17:54:57.475Z,14.25
2022-08-17T17:57:24.724Z,10.07
2022-08-17T17:59:59.732Z,14.98
2022-08-17T18:02:51.758Z,14.13
2022-08-17T18:05:38.488Z,13.95
2022-08-17T18:08:31.949Z,15.52
2022-08-17T18:11:35.403Z,15.30
2022-08-17T18:14:18.306Z,14.95
2022-08-17T18:16:48.014Z,16.17
2022-08-17T18:19:22.407Z,16.45
2022-08-17T18:22:27.953Z,17.15
2022-08-17T18:24:58.727Z,17.85
2022-08-17T18:27:37.929Z,18.50
2022-08-17T18:30:28.766Z,19.48
2022-08-17T18:33:22.134Z,18.95
2022-08-17T18:35:58.544Z,20.00
2022-08-17T18:38:36.574Z,19.20
2022-08-17T18:41:30.211Z,19.73
2022-08-17T18:44:03.995Z,22.25
2022-08-17T18:46:34.919Z,22.02
2022-08-17T18:49:24.179Z,23.65
2022-08-17T18:52:21.776Z,23.80
2022-08-17T18:55:00.985Z,25.85
2022-08-17T18:57:49.781Z,27.38
2022-08-17T19:00:31.702Z,25.90
2022-08-17T19:03:32.657Z,27.20
2022-08-17T19:06:28.138Z,27.25
2022-08-17T19:08:54.865Z,28.08
2022-08-17T19:11:28.469Z,30.70
2022-08-17T19:14:10.375Z,29.05
2022-08-17T19:16:55.900Z,28.23
2022-08-17T19:19:30.484Z,27.85
2022-08-17T19:22:06.285Z,30.25
2022-08-17T19:24:35.195Z,27.88
2022-08-17T19:27:34.904Z,30.02
2022-08-17T19:30:14.484Z,30.80
2022-08-17T19:32:41.211Z,30.77
2022-08-17T19:35:17.185Z,30.90
2022-08-17T19:38:13.157Z,32.53
2022-08-17T19:40:55.718Z,32.55
2022-08-17T19:43:40.910Z,32.70
2022-08-17T19:46:31.055Z,34.40
2022-08-17T19:49:03.603Z,35.10
2022-08-17T19:51:44.907Z,37.63
2022-08-17T19:54:30.859Z,35.88
2022-08-17T19:57:08.030Z,44.28
2022-08-17T19:59:53.346Z,41.63
2022-08-17T20:02:36.643Z,42.65
2022-08-17T20:05:18.828Z,43.30
2022-08-17T20:07:57.827Z,41.22
2022-08-17T20:10:54.509Z,40.20
2022-08-17T20:13:32.990Z,39.35
2022-08-17T20:16:01.630Z,40.45
2022-08-17T20:18:47.606Z,42.95
2022-08-17T20:21:19.703Z,42.03
2022-08-17T20:24:01.883Z,44.00
2022-08-17T20:26:57.894Z,44.10
2022-08-17T20:29:39.954Z,49.17
2022-08-17T20:32:18.612Z,47.70
2022-08-17T20:34:47.065Z,48.97
2022-08-17T20:37:14.294Z,48.75
2022-08-17T20:39:49.960Z,48.80
2022-08-17T20:42:22.528Z,47.83
2022-08-17T20:44:53.244Z,51.83
2022-08-17T20:47:34.246Z,49.00
2022-08-17T20:50:08.056Z,50.42
2022-08-17T20:52:56.986Z,49.50
2022-08-17T20:55:51.811Z,54.90
2022-08-17T20:58:23.159Z,55.20
2022-08-17T21:01:11.431Z,54.50
2022-08-17T21:03:50.695Z,52.60
2022-08-17T21:06:21.509Z,56.08
2022-08-17T21:09:13.057Z,53.88
2022-08-17T21:12:03.120Z,55.13
2022-08-17T21:15:04.133Z,55.38
2022-08-17T21:17:48.217Z,58.47
2022-08-17T21:20:42.210Z,57.95
2022-08-17T21:23:21.002Z,58.80
2022-08-17T21:25:57.354Z,63.15
2022-08-17T21:29:00.265Z,60.97
2022-08-17T21:31:34.281Z,63.97
2022-08-17T21:34:16.583Z,65.32
2022-08-17T21:36:47.291Z,63.37
2022-08-17T21:39:23.299Z,61.33
2022-08-17T21:41:57.656Z,63.88
2022-08-17T21:44:36.499Z,65.68
2022-08-17T21:47:21.937Z,68.43
2022-08-17T21:49:49.191Z,75.88
2022-08-17T21:52:19.579Z,76.53
2022-08-17T21:54:58.300Z,73.03
2022-08-17T21:57:27.868Z,75.70
2022-08-17T21:59:57.946Z,78.72
2022-08-17T22:02:34.840Z,77.00
2022-08-17T22:05:13.598Z,82.40
2022-08-17T22:07:53.069Z,82.18
2022-08-17T22:10:41.534Z,88.07
2022-08-17T22:13:19.731Z,88.25
2022-08-17T22:15:49.089Z,89.75
2022-08-17T22:18:27.300Z,90.57
2022-08-17T22:20:57.327Z,92.78
2022-08-17T22:24:05.434Z,91.90
2022-08-17T22:27:11.781Z,93.72
2022-08-17T22:29:53.133Z,92.90
2022-08-17T22:32:46.755Z,93.60
2022-08-17T22:35:25.474Z,95.03
2022-08-17T22:37:53.213Z,92.18
2022-08-17T22:40:30.312Z,92.68
2022-08-17T22:42:59.399Z,94.75
2022-08-17T22:45:29.647Z,94.82
2022-08-17T22:47:58.886Z,94.68
2022-08-17T22:50:28.983Z,95.53
2022-08-17T22:53:37.225Z,90.40
2022-08-17T22:56:22.872Z,87.95
2022-08-17T22:59:12.579Z,89.80
2022-08-17T23:01:40.699Z,87.10
2022-08-17T23:04:11.969Z,90.40
2022-08-17T23:06:42.234Z,88.43
2022-08-17T23:09:09.632Z,90.05
2022-08-17T23:11:48.784Z,87.22
2022-08-17T23:14:20.095Z,91.90
2022-08-17T23:16:48.832Z,85.75
2022-08-17T23:19:19.116Z,88.88
2022-08-17T23:21:46.701Z,91.03
2022-08-17T23:24:26.120Z,85.55
2022-08-17T23:26:53.897Z,89.03
2022-08-17T23:29:21.377Z,93.72
2022-08-17T23:31:49.391Z,89.68
2022-08-17T23:34:18.354Z,91.93
2022-08-17T23:36:50.478Z,90.13
2022-08-17T23:39:24.498Z,90.70
2022-08-17T23:41:53.368Z,90.35
2022-08-17T23:44:23.943Z,91.03
2022-08-17T23:46:51.699Z,86.70
2022-08-17T23:49:19.478Z,83.00
2022-08-17T23:51:48.720Z,80.07
2022-08-17T23:54:35.027Z,81.00
2022-08-17T23:57:04.675Z,80.25
2022-08-17T23:59:32.826Z,83.50
